createdAt,value
2023-01-17T00:00:53.615Z,14.60
2023-01-17T00:03:24.993Z,15.50
2023-01-17T00:06:12.106Z,14.80
2023-01-17T00:08:59.039Z,14.90
2023-01-17T00:11:27.866Z,14.10
2023-01-17T00:13:56.767Z,14.80
2023-01-17T00:16:25.583Z,13.70
2023-01-17T00:19:12.585Z,15.90
2023-01-17T00:22:34.561Z,15.20
2023-01-17T00:25:21.669Z,13.40
2023-01-17T00:27:50.222Z,12.70
2023-01-17T00:30:18.898Z,14.90
2023-01-17T00:32:47.558Z,14.60
2023-01-17T00:35:16.962Z,13.80
2023-01-17T00:37:45.709Z,14.00
2023-01-17T00:40:14.535Z,12.50
2023-01-17T00:42:43.127Z,14.70
2023-01-17T00:45:30.225Z,13.90
2023-01-17T00:48:17.380Z,14.80
2023-01-17T00:51:04.620Z,12.60
2023-01-17T00:53:51.882Z,14.20
2023-01-17T00:56:38.972Z,13.70
2023-01-17T00:59:26.208Z,15.30
2023-01-17T01:02:20.948Z,14.70
2023-01-17T01:05:08.082Z,11.60
2023-01-17T01:07:55.191Z,14.00
2023-01-17T01:10:42.285Z,13.70
2023-01-17T01:13:29.331Z,13.80
2023-01-17T01:16:21.582Z,13.40
2023-01-17T01:19:08.441Z,9.90
2023-01-17T01:21:55.495Z,14.80
2023-01-17T01:24:42.839Z,14.00
2023-01-17T01:27:29.981Z,15.60
2023-01-17T01:30:17.055Z,14.10
2023-01-17T01:33:04.475Z,13.80
2023-01-17T01:35:33.304Z,15.30
2023-01-17T01:38:03.546Z,15.60
2023-01-17T01:40:32.407Z,15.40
2023-01-17T01:43:05.849Z,13.80
2023-01-17T01:45:34.781Z,14.10
2023-01-17T01:48:13.441Z,16.20
2023-01-17T01:50:42.301Z,15.70
2023-01-17T01:53:11.817Z,12.70
2023-01-17T01:55:42.665Z,15.10
2023-01-17T01:58:21.835Z,14.40
2023-01-17T02:00:51.617Z,14.30
2023-01-17T02:03:28.093Z,15.90
2023-01-17T02:06:05.124Z,14.10
2023-01-17T02:08:34.779Z,14.50
2023-01-17T02:11:03.595Z,14.20
2023-01-17T02:13:32.414Z,14.30
2023-01-17T02:16:15.574Z,15.50
2023-01-17T02:19:01.751Z,15.00
2023-01-17T02:21:58.760Z,14.80
2023-01-17T02:25:03.093Z,14.10
2023-01-17T02:28:18.155Z,14.10
2023-01-17T02:30:51.612Z,14.60
2023-01-17T02:33:54.859Z,15.20
2023-01-17T02:36:36.647Z,14.60
2023-01-17T02:39:44.097Z,14.40
2023-01-17T02:42:21.686Z,14.80
2023-01-17T02:44:50.424Z,15.60
2023-01-17T02:47:30.738Z,16.90
2023-01-17T02:50:14.798Z,15.20
2023-01-17T02:53:29.099Z,14.60
2023-01-17T02:56:13.657Z,15.30
2023-01-17T02:59:05.367Z,15.30
2023-01-17T03:02:41.570Z,14.70
2023-01-17T03:05:20.746Z,15.00
2023-01-17T03:07:52.277Z,15.60
2023-01-17T03:10:22.088Z,15.50
2023-01-17T03:12:56.028Z,15.40
2023-01-17T03:15:24.882Z,16.10
2023-01-17T03:17:58.921Z,16.50
2023-01-17T03:20:27.741Z,17.10
2023-01-17T03:22:56.693Z,16.80
2023-01-17T03:25:25.387Z,16.50
2023-01-17T03:27:54.145Z,16.60
2023-01-17T03:30:23.341Z,17.00
2023-01-17T03:32:52.152Z,16.50
2023-01-17T03:35:21.076Z,16.90
2023-01-17T03:37:49.828Z,17.40
2023-01-17T03:40:18.759Z,16.70
2023-01-17T03:42:47.511Z,17.50
2023-01-17T03:45:16.469Z,17.50
2023-01-17T03:47:45.276Z,16.80
2023-01-17T03:50:14.154Z,17.10
2023-01-17T03:52:42.914Z,17.40
2023-01-17T03:55:11.855Z,16.50
2023-01-17T03:57:40.846Z,15.30
2023-01-17T04:00:11.091Z,16.40
2023-01-17T04:02:39.911Z,16.70
2023-01-17T04:05:09.910Z,17.10
2023-01-17T04:07:38.693Z,15.80
2023-01-17T04:10:08.404Z,17.60
2023-01-17T04:12:37.103Z,16.70
2023-01-17T04:15:06.504Z,16.50
2023-01-17T04:17:35.642Z,15.50
2023-01-17T04:20:05.230Z,15.10
2023-01-17T04:22:34.057Z,18.10
2023-01-17T04:25:05.533Z,16.70
2023-01-17T04:27:34.254Z,17.30
2023-01-17T04:30:02.994Z,17.70
2023-01-17T04:32:31.761Z,17.40
2023-01-17T04:35:00.479Z,18.30
2023-01-17T04:37:29.207Z,17.40
2023-01-17T04:39:57.967Z,17.90
2023-01-17T04:42:26.856Z,17.80
2023-01-17T04:44:55.687Z,17.50
2023-01-17T04:47:24.530Z,17.70
2023-01-17T04:49:53.866Z,17.30
2023-01-17T04:52:22.624Z,18.10
2023-01-17T04:54:53.002Z,17.70
2023-01-17T04:57:21.696Z,19.40
2023-01-17T04:59:50.479Z,14.90
2023-01-17T05:02:19.488Z,15.50
2023-01-17T05:04:48.400Z,17.10
2023-01-17T05:07:17.173Z,15.90
2023-01-17T05:09:45.895Z,17.70
2023-01-17T05:12:14.670Z,17.30
2023-01-17T05:14:43.425Z,17.90
2023-01-17T05:17:12.273Z,18.00
2023-01-17T05:19:41.158Z,16.50
2023-01-17T05:22:15.952Z,16.10
2023-01-17T05:24:46.509Z,16.80
2023-01-17T05:27:15.833Z,17.70
2023-01-17T05:29:45.710Z,17.10
2023-01-17T05:32:14.479Z,17.00
2023-01-17T05:34:43.281Z,17.70
2023-01-17T05:37:12.117Z,15.90
2023-01-17T05:39:41.376Z,17.30
2023-01-17T05:42:11.427Z,16.10
2023-01-17T05:44:40.917Z,15.70
2023-01-17T05:47:09.752Z,15.20
2023-01-17T05:49:39.092Z,16.50
2023-01-17T05:52:07.991Z,15.10
2023-01-17T05:54:36.741Z,16.90
2023-01-17T05:57:05.537Z,16.50
2023-01-17T05:59:37.262Z,16.80
2023-01-17T06:02:06.377Z,15.30
2023-01-17T06:04:35.295Z,15.50
2023-01-17T06:07:04.209Z,16.60
2023-01-17T06:09:33.012Z,14.90
2023-01-17T06:12:01.768Z,15.50
2023-01-17T06:14:30.507Z,16.40
2023-01-17T06:16:59.256Z,17.00
2023-01-17T06:19:27.972Z,16.40
2023-01-17T06:21:56.703Z,18.20
2023-01-17T06:24:25.474Z,15.70
2023-01-17T06:26:54.199Z,14.50
2023-01-17T06:29:23.044Z,15.10
2023-01-17T06:31:51.957Z,16.30
2023-01-17T06:34:20.819Z,14.30
2023-01-17T06:36:49.539Z,15.90
2023-01-17T06:39:18.260Z,16.40
2023-01-17T06:41:47.060Z,15.80
2023-01-17T06:44:16.195Z,16.10
2023-01-17T06:46:45.277Z,15.40
2023-01-17T06:49:15.404Z,15.70
2023-01-17T06:51:44.269Z,16.00
2023-01-17T06:54:13.307Z,15.10
2023-01-17T06:56:42.061Z,14.50
2023-01-17T06:59:10.925Z,15.70
2023-01-17T07:01:40.390Z,15.90
2023-01-17T07:04:09.215Z,15.80
2023-01-17T07:06:38.140Z,16.80
2023-01-17T07:09:06.882Z,17.20
2023-01-17T07:11:35.756Z,15.70
2023-01-17T07:14:04.482Z,15.00
2023-01-17T07:16:34.707Z,13.80
2023-01-17T07:19:03.703Z,13.60
2023-01-17T07:21:32.510Z,15.60
2023-01-17T07:24:01.291Z,15.30
2023-01-17T07:26:30.063Z,15.10
2023-01-17T07:28:59.073Z,15.40
2023-01-17T07:31:27.865Z,15.80
2023-01-17T07:33:59.442Z,15.90
2023-01-17T07:36:28.455Z,15.90
2023-01-17T07:41:41.545Z,15.30
2023-01-17T07:44:14.085Z,14.30
2023-01-17T07:46:42.978Z,13.70
2023-01-17T07:49:11.803Z,14.60
2023-01-17T07:51:40.749Z,14.00
2023-01-17T07:54:11.828Z,13.80
2023-01-17T07:56:40.632Z,14.00
2023-01-17T07:59:09.444Z,14.90
2023-01-17T08:01:38.535Z,14.00
2023-01-17T08:04:07.547Z,13.50
2023-01-17T08:06:38.028Z,14.50
2023-01-17T08:09:06.782Z,12.50
2023-01-17T08:11:35.543Z,13.70
2023-01-17T08:14:05.034Z,14.40
2023-01-17T08:16:33.803Z,12.20
2023-01-17T08:19:02.576Z,13.70
2023-01-17T08:21:32.458Z,13.80
2023-01-17T08:24:01.201Z,13.30
2023-01-17T08:26:30.395Z,12.10
2023-01-17T08:29:01.206Z,13.70
2023-01-17T08:31:35.712Z,12.80
2023-01-17T08:34:04.651Z,11.90
2023-01-17T08:36:33.510Z,12.50
2023-01-17T08:39:02.308Z,12.80
2023-01-17T08:41:32.516Z,11.90
2023-01-17T08:44:01.324Z,13.30
2023-01-17T08:46:32.090Z,12.60
2023-01-17T08:49:03.017Z,14.20
2023-01-17T08:51:33.058Z,13.80
2023-01-17T08:54:01.798Z,13.80
2023-01-17T08:56:30.629Z,13.40
2023-01-17T08:58:59.493Z,14.30
2023-01-17T09:01:28.405Z,13.40
2023-01-17T09:03:57.292Z,12.80
2023-01-17T09:06:26.156Z,13.00
2023-01-17T09:08:55.062Z,12.80
2023-01-17T09:11:23.816Z,12.10
2023-01-17T09:13:52.548Z,12.50
2023-01-17T09:16:21.317Z,12.50
2023-01-17T09:18:54.676Z,12.50
2023-01-17T09:21:23.878Z,12.10
2023-01-17T09:23:53.868Z,12.60
2023-01-17T09:26:30.334Z,12.20
2023-01-17T09:28:59.282Z,11.70
2023-01-17T09:31:28.365Z,11.20
2023-01-17T09:33:59.024Z,12.10
2023-01-17T09:36:29.364Z,11.70
2023-01-17T09:38:59.211Z,11.20
2023-01-17T09:41:54.506Z,12.00
2023-01-17T09:45:02.382Z,12.10
2023-01-17T09:47:41.466Z,12.40
2023-01-17T09:50:43.995Z,11.70
2023-01-17T09:53:21.075Z,12.20
2023-01-17T09:56:01.394Z,11.90
2023-01-17T09:59:10.733Z,11.80
2023-01-17T10:02:25.003Z,10.90
2023-01-17T10:05:21.006Z,12.30
2023-01-17T10:08:38.271Z,10.40
2023-01-17T10:11:56.104Z,11.80
2023-01-17T10:15:40.644Z,11.00
2023-01-17T10:18:59.559Z,11.20
2023-01-17T10:22:10.511Z,10.50
2023-01-17T10:25:27.586Z,10.80
2023-01-17T10:28:13.487Z,11.10
2023-01-17T10:30:50.683Z,11.70
2023-01-17T10:33:27.616Z,11.30
2023-01-17T10:36:06.167Z,10.30
2023-01-17T10:38:39.055Z,10.30
2023-01-17T10:41:22.608Z,10.90
2023-01-17T10:44:20.462Z,10.60
2023-01-17T10:47:03.728Z,10.80
2023-01-17T10:52:19.379Z,10.80
2023-01-17T10:54:59.287Z,10.30
2023-01-17T10:57:28.458Z,11.10
2023-01-17T11:00:00.887Z,11.10
2023-01-17T11:02:37.044Z,10.90
2023-01-17T11:05:21.943Z,10.30
2023-01-17T11:08:02.941Z,12.50
2023-01-17T11:10:39.926Z,10.70
2023-01-17T11:13:38.904Z,11.30
2023-01-17T11:16:19.601Z,9.80
2023-01-17T11:19:27.923Z,8.90
2023-01-17T11:22:05.052Z,10.30
2023-01-17T11:24:42.199Z,10.00
2023-01-17T11:27:30.458Z,9.30
2023-01-17T11:30:05.272Z,9.90
2023-01-17T11:32:34.932Z,10.70
2023-01-17T11:35:26.274Z,9.40
2023-01-17T11:38:10.988Z,9.60
2023-01-17T11:40:45.130Z,10.10
2023-01-17T11:43:27.794Z,10.40
2023-01-17T11:46:05.854Z,9.50
2023-01-17T11:48:38.907Z,10.30
2023-01-17T11:54:28.352Z,8.60
2023-01-17T11:57:01.832Z,10.60
2023-01-17T11:59:37.695Z,9.90
2023-01-17T12:02:43.631Z,9.20
2023-01-17T12:05:54.005Z,8.70
2023-01-17T12:08:53.047Z,9.60
2023-01-17T12:12:31.044Z,9.90
2023-01-17T12:15:23.500Z,9.70
2023-01-17T12:18:13.711Z,9.30
2023-01-17T12:21:17.598Z,8.20
2023-01-17T12:23:56.246Z,9.70
2023-01-17T12:26:33.837Z,10.50
2023-01-17T12:29:24.742Z,8.60
2023-01-17T12:32:13.694Z,9.90
2023-01-17T12:35:15.759Z,9.10
2023-01-17T12:38:00.261Z,8.80
2023-01-17T12:40:50.045Z,10.30
2023-01-17T12:43:43.403Z,10.60
2023-01-17T12:46:27.391Z,9.90
2023-01-17T12:49:17.186Z,9.10
2023-01-17T12:51:50.471Z,9.00
2023-01-17T12:54:48.214Z,9.10
2023-01-17T12:57:27.747Z,10.20
2023-01-17T13:00:19.865Z,9.80
2023-01-17T13:03:23.326Z,9.60
2023-01-17T13:05:52.725Z,9.70
2023-01-17T13:08:46.776Z,9.00
2023-01-17T13:11:28.853Z,9.70
2023-01-17T13:14:00.070Z,10.00
2023-01-17T13:16:29.046Z,9.30
2023-01-17T13:19:05.182Z,9.70
2023-01-17T13:21:35.592Z,8.80
2023-01-17T13:24:20.860Z,8.40
2023-01-17T13:27:12.581Z,10.50
2023-01-17T13:30:27.747Z,9.90
2023-01-17T13:33:12.393Z,9.10
2023-01-17T13:36:14.005Z,10.60
2023-01-17T13:39:15.991Z,8.90
2023-01-17T13:42:11.105Z,9.40
2023-01-17T13:44:40.005Z,8.60
2023-01-17T13:47:29.900Z,9.80
2023-01-17T13:49:59.518Z,9.40
2023-01-17T13:52:33.181Z,9.80
2023-01-17T13:55:05.578Z,10.20
2023-01-17T13:57:46.951Z,8.70
2023-01-17T14:00:21.657Z,10.00
2023-01-17T14:02:52.871Z,10.00
2023-01-17T14:05:56.251Z,9.40
2023-01-17T14:08:27.476Z,9.20
2023-01-17T14:11:09.834Z,12.60
2023-01-17T14:13:40.248Z,9.30
2023-01-17T14:16:29.358Z,9.40
2023-01-17T14:18:58.269Z,9.20
2023-01-17T14:21:33.681Z,8.50
2023-01-17T14:24:13.358Z,9.40
2023-01-17T14:26:42.117Z,9.20
2023-01-17T14:29:47.220Z,8.20
2023-01-17T14:32:29.739Z,8.10
2023-01-17T14:34:59.178Z,8.00
2023-01-17T14:37:50.805Z,8.80
2023-01-17T14:40:26.565Z,8.50
2023-01-17T14:43:13.240Z,8.60
2023-01-17T14:45:43.909Z,12.10
2023-01-17T14:48:22.665Z,10.00
2023-01-17T14:50:55.050Z,10.10
2023-01-17T14:53:29.166Z,10.50
2023-01-17T14:56:13.372Z,9.70
2023-01-17T14:58:42.660Z,9.80
2023-01-17T15:01:15.928Z,9.90
2023-01-17T15:03:51.657Z,10.30
2023-01-17T15:06:33.388Z,10.40
2023-01-17T15:09:29.045Z,11.50
2023-01-17T15:11:58.326Z,10.60
2023-01-17T15:14:38.361Z,11.40
2023-01-17T15:17:24.661Z,11.20
2023-01-17T15:19:59.822Z,10.80
2023-01-17T15:22:29.947Z,12.40
2023-01-17T15:25:00.387Z,12.70
2023-01-17T15:27:29.459Z,12.40
2023-01-17T15:30:02.543Z,12.60
